createdAt,value
2022-12-05T00:01:59.096Z,41.07
2022-12-05T00:04:27.243Z,40.50
2022-12-05T00:06:55.406Z,41.63
2022-12-05T00:09:24.906Z,42.20
2022-12-05T00:11:52.927Z,41.53
2022-12-05T00:14:20.967Z,42.07
2022-12-05T00:16:49.011Z,41.10
2022-12-05T00:19:17.380Z,42.23
2022-12-05T00:21:45.700Z,39.67
2022-12-05T00:24:15.766Z,42.40
2022-12-05T00:26:45.898Z,42.60
2022-12-05T00:29:14.114Z,42.57
2022-12-05T00:31:42.695Z,42.90
2022-12-05T00:34:11.361Z,41.77
2022-12-05T00:36:39.719Z,42.67
2022-12-05T00:39:09.730Z,39.77
2022-12-05T00:41:38.626Z,41.20
2022-12-05T00:44:08.345Z,41.50
2022-12-05T00:46:37.493Z,41.30
2022-12-05T00:49:07.183Z,42.63
2022-12-05T00:51:37.961Z,42.50
2022-12-05T00:54:08.822Z,42.33
2022-12-05T00:56:37.407Z,40.93
2022-12-05T00:59:08.855Z,41.83
2022-12-05T01:01:38.802Z,42.00
2022-12-05T01:04:09.755Z,41.60
2022-12-05T01:06:38.534Z,42.20
2022-12-05T01:09:06.946Z,41.93
2022-12-05T01:11:41.036Z,43.00
2022-12-05T01:14:11.745Z,42.00
2022-12-05T01:16:42.142Z,40.10
2022-12-05T01:19:13.324Z,40.77
2022-12-05T01:21:41.814Z,41.77
2022-12-05T01:24:10.778Z,39.43
2022-12-05T01:26:39.091Z,40.33
2022-12-05T01:29:07.525Z,41.13
2022-12-05T01:31:38.720Z,42.30
2022-12-05T01:34:08.863Z,41.50
2022-12-05T01:36:39.595Z,41.20
2022-12-05T01:39:08.633Z,40.63
2022-12-05T01:41:38.975Z,42.83
2022-12-05T01:44:28.374Z,42.37
2022-12-05T01:46:59.111Z,42.03
2022-12-05T01:49:30.480Z,40.40
2022-12-05T01:52:03.706Z,41.40
2022-12-05T01:54:32.135Z,41.70
2022-12-05T01:57:03.798Z,39.93
2022-12-05T01:59:35.598Z,40.83
2022-12-05T02:02:06.315Z,39.83
2022-12-05T02:04:39.683Z,40.47
2022-12-05T02:07:07.913Z,39.97
2022-12-05T02:09:36.613Z,40.07
2022-12-05T02:12:06.271Z,40.50
2022-12-05T02:14:44.751Z,40.47
2022-12-05T02:17:22.476Z,40.47
2022-12-05T02:20:09.591Z,39.57
2022-12-05T02:23:04.954Z,40.53
2022-12-05T02:26:08.588Z,40.73
2022-12-05T02:28:51.998Z,40.50
2022-12-05T02:31:29.267Z,40.00
2022-12-05T02:34:04.454Z,40.80
2022-12-05T02:36:40.892Z,41.47
2022-12-05T02:39:18.317Z,41.20
2022-12-05T02:41:52.258Z,39.63
2022-12-05T02:44:24.615Z,42.20
2022-12-05T02:46:56.892Z,41.13
2022-12-05T02:49:28.280Z,40.33
2022-12-05T02:51:59.828Z,41.07
2022-12-05T02:54:30.843Z,40.70
2022-12-05T02:57:01.288Z,42.27
2022-12-05T02:59:30.084Z,40.47
2022-12-05T03:01:59.806Z,40.13
2022-12-05T03:04:28.387Z,40.60
2022-12-05T03:07:00.911Z,39.53
2022-12-05T03:09:33.286Z,39.53
2022-12-05T03:12:08.076Z,38.77
2022-12-05T03:14:39.906Z,39.90
2022-12-05T03:17:15.396Z,39.30
2022-12-05T03:19:51.027Z,39.57
2022-12-05T03:22:27.713Z,39.63
2022-12-05T03:24:56.810Z,37.97
2022-12-05T03:27:31.076Z,38.13
2022-12-05T03:30:05.873Z,38.83
2022-12-05T03:32:40.759Z,38.53
2022-12-05T03:35:14.434Z,38.10
2022-12-05T03:37:48.798Z,38.27
2022-12-05T03:40:28.858Z,37.17
2022-12-05T03:43:03.882Z,37.90
2022-12-05T03:45:40.305Z,38.30
2022-12-05T03:48:16.074Z,37.90
2022-12-05T03:50:48.324Z,37.83
2022-12-05T03:53:22.294Z,36.87
2022-12-05T03:55:58.215Z,34.93
2022-12-05T03:58:32.434Z,36.67
2022-12-05T04:01:02.863Z,36.70
2022-12-05T04:03:40.662Z,36.70
2022-12-05T04:06:15.348Z,36.60
2022-12-05T04:08:49.001Z,36.37
2022-12-05T04:11:21.013Z,36.97
2022-12-05T04:13:51.527Z,35.13
2022-12-05T04:16:41.541Z,36.70
2022-12-05T04:19:16.114Z,36.03
2022-12-05T04:21:47.593Z,34.73
2022-12-05T04:24:42.309Z,36.07
2022-12-05T04:27:22.294Z,37.00
2022-12-05T04:29:58.808Z,35.40
2022-12-05T04:32:31.770Z,34.00
2022-12-05T04:35:08.419Z,35.50
2022-12-05T04:37:41.683Z,36.47
2022-12-05T04:40:15.566Z,34.87
2022-12-05T04:42:46.826Z,36.60
2022-12-05T04:45:18.310Z,36.50
2022-12-05T04:47:51.890Z,36.40
2022-12-05T04:50:23.327Z,35.83
2022-12-05T04:52:56.718Z,36.57
2022-12-05T04:55:28.089Z,35.17
2022-12-05T04:58:04.121Z,35.83
2022-12-05T05:00:36.333Z,36.43
2022-12-05T05:03:09.910Z,34.87
2022-12-05T05:05:40.691Z,33.93
2022-12-05T05:08:18.261Z,33.87
2022-12-05T05:10:56.339Z,34.87
2022-12-05T05:13:24.342Z,34.10
2022-12-05T05:15:52.518Z,35.50
2022-12-05T05:18:20.502Z,34.87
2022-12-05T05:20:49.954Z,34.87
2022-12-05T05:23:18.041Z,34.20
2022-12-05T05:25:46.337Z,34.70
2022-12-05T05:28:14.484Z,34.33
2022-12-05T05:30:42.914Z,33.73
2022-12-05T05:33:10.859Z,33.80
2022-12-05T05:35:39.294Z,33.60
2022-12-05T05:38:08.837Z,34.20
2022-12-05T05:40:37.760Z,34.87
2022-12-05T05:43:05.832Z,35.07
2022-12-05T05:45:34.149Z,33.43
2022-12-05T05:48:02.541Z,33.60
2022-12-05T05:50:33.608Z,32.60
2022-12-05T05:53:01.687Z,33.73
2022-12-05T05:55:31.141Z,33.93
2022-12-05T05:57:59.237Z,33.97
2022-12-05T06:00:27.387Z,36.13
2022-12-05T06:02:55.496Z,32.23
2022-12-05T06:05:23.791Z,32.50
2022-12-05T06:07:54.068Z,34.17
2022-12-05T06:10:22.007Z,33.40
2022-12-05T06:12:51.724Z,34.40
2022-12-05T06:15:19.839Z,33.60
2022-12-05T06:17:47.804Z,34.63
2022-12-05T06:20:16.251Z,35.40
2022-12-05T06:22:44.513Z,32.87
2022-12-05T06:25:13.019Z,34.10
2022-12-05T06:27:41.062Z,32.63
2022-12-05T06:30:11.795Z,32.80
2022-12-05T06:32:39.718Z,33.57
2022-12-05T06:35:15.516Z,34.57
2022-12-05T06:37:45.289Z,33.30
2022-12-05T06:40:14.106Z,34.10
2022-12-05T06:42:42.320Z,33.83
2022-12-05T06:45:13.230Z,34.40
2022-12-05T06:47:41.387Z,32.80
2022-12-05T06:50:10.563Z,33.63
2022-12-05T06:52:38.755Z,32.93
2022-12-05T06:55:07.914Z,33.27
2022-12-05T06:57:36.336Z,33.57
2022-12-05T07:00:24.648Z,34.33
2022-12-05T07:02:54.686Z,33.77
2022-12-05T07:05:22.769Z,33.17
2022-12-05T07:07:53.149Z,33.53
2022-12-05T07:10:21.251Z,33.50
2022-12-05T07:12:49.692Z,34.47
2022-12-05T07:15:17.900Z,34.23
2022-12-05T07:17:46.227Z,33.00
2022-12-05T07:20:17.964Z,33.07
2022-12-05T07:22:46.383Z,32.53
2022-12-05T07:25:14.477Z,33.53
2022-12-05T07:27:42.665Z,33.97
2022-12-05T07:30:11.258Z,33.63
2022-12-05T07:32:39.452Z,33.67
2022-12-05T07:35:08.256Z,31.43
2022-12-05T07:37:37.791Z,31.93
2022-12-05T07:40:07.415Z,32.60
2022-12-05T07:42:35.662Z,32.20
2022-12-05T07:45:04.238Z,31.57
2022-12-05T07:47:32.744Z,30.73
2022-12-05T07:50:01.106Z,31.70
2022-12-05T07:52:29.899Z,29.73
2022-12-05T07:54:59.781Z,31.33
2022-12-05T07:57:31.736Z,31.07
2022-12-05T08:00:00.233Z,30.50
2022-12-05T08:02:28.778Z,32.03
2022-12-05T08:04:59.602Z,31.90
2022-12-05T08:07:28.499Z,30.50
2022-12-05T08:10:01.260Z,31.07
2022-12-05T08:12:29.425Z,29.47
2022-12-05T08:14:57.791Z,31.30
2022-12-05T08:17:26.766Z,31.43
2022-12-05T08:19:54.912Z,30.80
2022-12-05T08:22:23.085Z,30.47
2022-12-05T08:24:56.092Z,30.00
2022-12-05T08:27:26.104Z,30.73
2022-12-05T08:29:56.129Z,30.43
2022-12-05T08:32:24.315Z,29.63
2022-12-05T08:34:52.721Z,30.37
2022-12-05T08:37:20.759Z,30.63
2022-12-05T08:39:49.864Z,30.30
2022-12-05T08:42:18.001Z,30.00
2022-12-05T08:44:47.499Z,30.77
2022-12-05T08:47:15.802Z,30.90
2022-12-05T08:49:43.935Z,29.17
2022-12-05T08:52:12.143Z,30.57
2022-12-05T08:54:40.621Z,31.77
2022-12-05T08:57:12.870Z,30.47
2022-12-05T08:59:40.936Z,30.47
2022-12-05T09:02:12.422Z,30.50
2022-12-05T09:04:40.751Z,29.50
2022-12-05T09:07:09.468Z,29.17
2022-12-05T09:09:37.623Z,29.73
2022-12-05T09:12:06.597Z,30.10
2022-12-05T09:14:37.550Z,30.73
2022-12-05T09:17:05.926Z,29.93
2022-12-05T09:19:35.582Z,29.43
2022-12-05T09:22:03.853Z,29.90
2022-12-05T09:24:32.044Z,29.53
2022-12-05T09:27:00.100Z,29.00
2022-12-05T09:29:29.484Z,29.20
2022-12-05T09:31:57.964Z,29.93
2022-12-05T09:34:27.139Z,30.90
2022-12-05T09:37:22.869Z,29.93
2022-12-05T09:39:48.550Z,30.20
2022-12-05T09:42:39.782Z,30.60
2022-12-05T09:45:18.094Z,29.53
2022-12-05T09:47:57.455Z,29.63
2022-12-05T09:50:28.504Z,30.50
2022-12-05T09:53:12.880Z,30.40
2022-12-05T09:55:48.472Z,30.97
2022-12-05T09:58:29.906Z,29.70
2022-12-05T10:01:04.563Z,29.77
2022-12-05T10:03:42.292Z,30.37
2022-12-05T10:06:17.324Z,30.03
2022-12-05T10:09:11.266Z,30.17
2022-12-05T10:11:49.090Z,30.27
2022-12-05T10:14:23.735Z,30.00
2022-12-05T10:16:56.520Z,30.90
2022-12-05T10:19:28.259Z,29.63
2022-12-05T10:21:59.297Z,29.90
2022-12-05T10:24:34.091Z,29.43
2022-12-05T10:27:07.207Z,30.00
2022-12-05T10:29:39.483Z,29.83
2022-12-05T10:32:15.892Z,29.13
2022-12-05T10:34:49.353Z,28.87
2022-12-05T10:37:19.761Z,29.17
2022-12-05T10:39:50.516Z,29.17
2022-12-05T10:42:24.747Z,28.83
2022-12-05T10:44:59.315Z,29.10
2022-12-05T10:47:27.781Z,29.43
2022-12-05T10:49:57.844Z,30.67
2022-12-05T10:52:26.494Z,29.83
2022-12-05T10:55:01.887Z,30.10
2022-12-05T10:57:31.791Z,29.37
2022-12-05T11:00:10.457Z,30.50
2022-12-05T11:02:38.982Z,29.93
2022-12-05T11:05:07.744Z,30.23
2022-12-05T11:07:39.101Z,30.37
2022-12-05T11:10:26.655Z,30.43
2022-12-05T11:12:58.452Z,29.80
2022-12-05T11:15:28.301Z,30.07
2022-12-05T11:17:58.071Z,29.57
2022-12-05T11:20:41.388Z,30.07
2022-12-05T11:23:24.779Z,28.37
2022-12-05T11:25:56.613Z,29.53
2022-12-05T11:28:31.925Z,29.40
2022-12-05T11:31:01.977Z,29.40
2022-12-05T11:33:31.145Z,28.67
2022-12-05T11:36:06.965Z,28.40
2022-12-05T11:38:35.336Z,28.67
2022-12-05T11:41:34.094Z,28.17
2022-12-05T11:44:24.470Z,27.93
2022-12-05T11:47:06.921Z,28.40
2022-12-05T11:49:46.418Z,28.33
2022-12-05T11:52:27.349Z,28.90
2022-12-05T11:55:05.373Z,28.27
2022-12-05T11:57:52.732Z,29.13
2022-12-05T12:00:27.300Z,28.90
2022-12-05T12:03:34.435Z,29.07
2022-12-05T12:06:18.059Z,28.90
2022-12-05T12:08:58.004Z,28.80
2022-12-05T12:11:34.102Z,29.43
2022-12-05T12:14:12.883Z,28.20
2022-12-05T12:16:53.526Z,28.30
2022-12-05T12:19:36.838Z,28.87
2022-12-05T12:22:17.127Z,29.47
2022-12-05T12:24:58.444Z,29.13
2022-12-05T12:27:44.772Z,29.03
2022-12-05T12:30:18.861Z,28.63
2022-12-05T12:32:57.788Z,29.00
2022-12-05T12:35:30.811Z,29.43
2022-12-05T12:38:18.235Z,29.43
2022-12-05T12:40:51.752Z,29.50
2022-12-05T12:43:54.561Z,30.17
2022-12-05T12:46:40.412Z,29.77
2022-12-05T12:49:25.492Z,30.10
2022-12-05T12:51:57.624Z,29.33
2022-12-05T12:55:02.934Z,29.97
2022-12-05T12:57:37.050Z,30.47
2022-12-05T13:00:21.325Z,30.33
2022-12-05T13:02:57.711Z,30.17
2022-12-05T13:05:34.757Z,30.00
2022-12-05T13:08:06.509Z,30.43
2022-12-05T13:10:40.798Z,30.40
2022-12-05T13:13:12.452Z,29.80
2022-12-05T13:15:44.754Z,30.03
2022-12-05T13:18:17.805Z,30.80
2022-12-05T13:20:49.256Z,29.33
2022-12-05T13:23:20.740Z,30.33
2022-12-05T13:25:50.790Z,30.43
2022-12-05T13:28:29.494Z,29.77
2022-12-05T13:31:01.781Z,29.93
2022-12-05T13:33:36.611Z,29.30
2022-12-05T13:36:25.792Z,29.50
2022-12-05T13:39:19.912Z,30.53
2022-12-05T13:42:08.543Z,30.47
2022-12-05T13:44:42.640Z,30.83
2022-12-05T13:47:30.653Z,31.17
2022-12-05T13:50:09.850Z,31.27
2022-12-05T13:52:45.233Z,30.73
2022-12-05T13:55:24.397Z,30.97
2022-12-05T13:57:54.766Z,30.83
2022-12-05T14:00:34.783Z,32.03
2022-12-05T14:03:08.575Z,30.33
2022-12-05T14:05:53.323Z,30.83
2022-12-05T14:08:54.911Z,30.90
2022-12-05T14:11:23.183Z,30.20
2022-12-05T14:13:51.789Z,31.03
2022-12-05T14:16:49.872Z,31.00
2022-12-05T14:19:50.112Z,31.13
2022-12-05T14:22:48.869Z,31.23
2022-12-05T14:25:35.297Z,31.23
2022-12-05T14:28:18.318Z,31.03
2022-12-05T14:31:04.275Z,30.60
2022-12-05T14:33:33.286Z,30.47
2022-12-05T14:36:08.926Z,31.47
2022-12-05T14:38:38.978Z,29.93
2022-12-05T14:41:19.297Z,30.63
2022-12-05T14:43:54.708Z,31.57
2022-12-05T14:46:28.381Z,30.27
2022-12-05T14:49:17.300Z,30.77
2022-12-05T14:51:49.178Z,30.43
2022-12-05T14:54:20.782Z,29.87
2022-12-05T14:56:56.382Z,31.43
2022-12-05T14:59:33.686Z,30.80
2022-12-05T15:02:05.515Z,30.13
2022-12-05T15:04:40.894Z,30.17
2022-12-05T15:07:15.384Z,30.63
2022-12-05T15:09:58.718Z,29.97
2022-12-05T15:12:29.919Z,30.63
2022-12-05T15:15:17.481Z,29.73
2022-12-05T15:17:50.680Z,30.13
2022-12-05T15:20:28.229Z,30.47
2022-12-05T15:22:56.813Z,30.60
2022-12-05T15:25:30.097Z,29.90
2022-12-05T15:28:28.820Z,31.30
2022-12-05T15:30:58.392Z,32.10
2022-12-05T15:33:31.897Z,31.50
2022-12-05T15:36:01.324Z,32.40
2022-12-05T15:38:35.652Z,31.27
2022-12-05T15:41:05.612Z,32.33
2022-12-05T15:43:37.509Z,31.47
2022-12-05T15:46:11.151Z,31.37
2022-12-05T15:48:39.428Z,31.03
2022-12-05T15:51:19.387Z,31.47
2022-12-05T15:53:53.322Z,31.43
2022-12-05T15:56:31.749Z,30.83
2022-12-05T15:59:05.819Z,31.77
2022-12-05T16:01:40.061Z,30.97
2022-12-05T16:04:42.188Z,30.83
2022-12-05T16:07:14.998Z,31.33
2022-12-05T16:09:47.614Z,31.57
2022-12-05T16:12:37.454Z,30.63
2022-12-05T16:15:12.601Z,29.37
2022-12-05T16:17:43.614Z,29.27
2022-12-05T16:20:26.547Z,28.47
2022-12-05T16:22:58.919Z,29.20
2022-12-05T16:25:29.367Z,28.03
2022-12-05T16:28:02.791Z,28.57
2022-12-05T16:30:32.316Z,28.17
2022-12-05T16:33:03.954Z,27.43
2022-12-05T16:35:37.778Z,29.30
2022-12-05T16:38:15.695Z,26.97
2022-12-05T16:40:55.264Z,28.23
2022-12-05T16:43:31.916Z,28.13
2022-12-05T16:46:21.845Z,28.17
2022-12-05T16:49:18.413Z,27.53
2022-12-05T16:51:54.078Z,26.97
2022-12-05T16:54:22.132Z,28.03
2022-12-05T16:56:50.380Z,28.10
2022-12-05T16:59:24.720Z,28.53
2022-12-05T17:01:53.004Z,27.80
2022-12-05T17:04:21.324Z,28.00
2022-12-05T17:06:49.482Z,29.80
2022-12-05T17:09:17.860Z,32.03
2022-12-05T17:11:51.525Z,30.60
2022-12-05T17:14:22.392Z,30.10
2022-12-05T17:16:50.704Z,30.67
2022-12-05T17:19:19.332Z,29.70
2022-12-05T17:21:48.344Z,29.27
2022-12-05T17:24:18.657Z,29.30
2022-12-05T17:26:49.078Z,29.10
2022-12-05T17:29:17.352Z,30.37
2022-12-05T17:31:47.031Z,29.33
2022-12-05T17:34:17.294Z,28.90
2022-12-05T17:36:46.022Z,27.87
2022-12-05T17:39:14.248Z,27.83
2022-12-05T17:41:42.620Z,30.37
2022-12-05T17:44:14.021Z,28.50
2022-12-05T17:46:43.703Z,33.60
2022-12-05T17:49:14.886Z,28.60
2022-12-05T17:52:13.585Z,28.97
2022-12-05T17:54:32.461Z,29.43
2022-12-05T17:57:00.756Z,29.97
2022-12-05T17:59:31.743Z,30.00
2022-12-05T18:02:00.101Z,27.90
2022-12-05T18:04:29.828Z,28.20
2022-12-05T18:07:00.708Z,28.70
2022-12-05T18:09:28.943Z,28.30
2022-12-05T18:12:00.410Z,28.10
2022-12-05T18:14:28.914Z,28.60
2022-12-05T18:16:59.524Z,35.33
2022-12-05T18:19:29.171Z,28.43
2022-12-05T18:22:00.211Z,30.63
2022-12-05T18:24:29.947Z,30.63
2022-12-05T18:26:58.562Z,28.97
2022-12-05T18:29:27.163Z,32.10
2022-12-05T18:31:56.579Z,29.27
2022-12-05T18:34:25.246Z,28.80
2022-12-05T18:36:56.609Z,32.23
2022-12-05T18:39:24.967Z,31.40
2022-12-05T18:41:53.133Z,30.27
2022-12-05T18:44:21.445Z,29.97
2022-12-05T18:46:50.120Z,29.83
2022-12-05T18:49:22.854Z,28.27
2022-12-05T18:51:54.917Z,28.07
2022-12-05T18:54:23.553Z,40.20
2022-12-05T18:56:52.832Z,28.93
2022-12-05T18:59:23.308Z,29.00
2022-12-05T19:01:53.159Z,29.17
2022-12-05T19:04:24.116Z,28.37
2022-12-05T19:06:56.445Z,32.40
2022-12-05T19:09:28.979Z,28.53
2022-12-05T19:12:00.979Z,30.70
2022-12-05T19:14:33.066Z,32.30
2022-12-05T19:17:01.465Z,43.70
2022-12-05T19:19:31.388Z,31.77
2022-12-05T19:22:02.333Z,34.40
2022-12-05T19:24:34.793Z,38.20
2022-12-05T19:27:03.226Z,32.50
2022-12-05T19:29:31.340Z,35.20
2022-12-05T19:32:00.059Z,29.83
2022-12-05T19:34:31.251Z,32.03
2022-12-05T19:37:01.215Z,31.60
2022-12-05T19:39:30.773Z,29.40
2022-12-05T19:42:00.237Z,28.97
2022-12-05T19:44:31.489Z,31.13
2022-12-05T19:47:00.586Z,33.23
2022-12-05T19:50:01.163Z,28.67
2022-12-05T19:52:32.981Z,30.60
2022-12-05T19:55:05.241Z,37.80
2022-12-05T19:57:34.317Z,36.20
2022-12-05T20:00:03.104Z,39.13
2022-12-05T20:02:55.986Z,31.20
2022-12-05T20:05:48.019Z,31.50
2022-12-05T20:08:31.458Z,30.20
2022-12-05T20:11:08.538Z,29.00
2022-12-05T20:13:46.884Z,28.90
2022-12-05T20:16:19.179Z,29.60
2022-12-05T20:19:07.925Z,29.60
2022-12-05T20:22:01.944Z,30.37
2022-12-05T20:24:32.175Z,30.03
2022-12-05T20:27:02.193Z,29.03
2022-12-05T20:29:30.727Z,30.07
2022-12-05T20:31:59.221Z,29.90
2022-12-05T20:34:30.287Z,30.47
2022-12-05T20:37:01.144Z,29.63
2022-12-05T20:39:29.772Z,30.80
2022-12-05T20:42:02.759Z,30.30
2022-12-05T20:44:31.174Z,31.47
2022-12-05T20:46:59.594Z,30.57
2022-12-05T20:49:28.027Z,29.43
2022-12-05T20:51:58.366Z,30.70
2022-12-05T20:54:29.754Z,30.17
2022-12-05T20:56:59.376Z,30.60
2022-12-05T20:59:29.994Z,30.27
2022-12-05T21:02:00.319Z,29.03
2022-12-05T21:04:29.962Z,29.30
2022-12-05T21:07:03.769Z,29.93
2022-12-05T21:09:31.985Z,30.77
2022-12-05T21:12:00.083Z,30.47
2022-12-05T21:14:29.662Z,30.50
2022-12-05T21:17:01.009Z,30.60
2022-12-05T21:19:30.635Z,31.00
2022-12-05T21:21:58.596Z,30.93
2022-12-05T21:24:28.443Z,30.87
2022-12-05T21:26:59.459Z,31.43
2022-12-05T21:29:27.599Z,31.00
2022-12-05T21:31:59.710Z,31.40
2022-12-05T21:34:27.697Z,30.90
2022-12-05T21:36:59.264Z,30.03
2022-12-05T21:39:27.407Z,30.60
2022-12-05T21:42:01.669Z,31.90
2022-12-05T21:44:30.067Z,32.40
2022-12-05T21:47:02.750Z,30.60
2022-12-05T21:49:30.816Z,31.97
2022-12-05T21:51:58.971Z,32.40
2022-12-05T21:54:27.448Z,31.40
2022-12-05T21:56:58.047Z,31.27
2022-12-05T21:59:27.298Z,31.77
2022-12-05T22:01:58.211Z,32.07
2022-12-05T22:04:27.758Z,31.40
2022-12-05T22:06:55.813Z,31.23
2022-12-05T22:09:23.978Z,31.67
2022-12-05T22:11:52.128Z,31.37
2022-12-05T22:14:20.222Z,31.07
2022-12-05T22:16:48.406Z,31.47
2022-12-05T22:19:16.419Z,31.03
2022-12-05T22:21:59.713Z,31.93
2022-12-05T22:24:28.299Z,32.27
2022-12-05T22:26:56.620Z,32.17
2022-12-05T22:29:24.789Z,33.07
2022-12-05T22:31:52.983Z,29.97
2022-12-05T22:34:21.548Z,31.20
2022-12-05T22:36:52.282Z,30.87
2022-12-05T22:39:20.191Z,31.30
2022-12-05T22:41:48.211Z,31.93
2022-12-05T22:44:18.548Z,32.77
2022-12-05T22:46:46.656Z,33.33
2022-12-05T22:49:15.004Z,31.93
2022-12-05T22:51:43.075Z,31.57
2022-12-05T22:54:12.727Z,31.67
2022-12-05T22:56:40.842Z,32.17
2022-12-05T22:59:14.713Z,31.97
2022-12-05T23:01:43.078Z,33.63
2022-12-05T23:04:12.589Z,33.63
2022-12-05T23:06:41.154Z,33.00
2022-12-05T23:09:12.136Z,31.57
2022-12-05T23:11:40.611Z,33.40
2022-12-05T23:14:08.850Z,33.27
2022-12-05T23:16:37.163Z,32.27
2022-12-05T23:19:08.432Z,32.17
2022-12-05T23:21:38.366Z,32.47
2022-12-05T23:24:08.707Z,33.57
2022-12-05T23:26:41.794Z,33.00
2022-12-05T23:29:12.159Z,34.50
2022-12-05T23:31:41.030Z,33.53
2022-12-05T23:34:09.603Z,33.73
2022-12-05T23:36:37.941Z,32.90
2022-12-05T23:39:07.298Z,32.53
2022-12-05T23:41:36.173Z,32.27
2022-12-05T23:44:06.058Z,33.33
2022-12-05T23:46:34.293Z,33.53
2022-12-05T23:49:02.546Z,33.70
2022-12-05T23:51:31.726Z,34.17
2022-12-05T23:54:04.669Z,34.07
2022-12-05T23:56:34.604Z,33.73
2022-12-05T23:59:04.165Z,34.17
